Terminal Aerodrome Forecast
Issued by NWS Pittsburgh, PA

Current Version | Previous Version | Text Only | Print | Product List | Glossary Off
Versions: 1 2 3 4 5 6 7 8 9 10 11 12 13 14 15 16 17 18 19 20 21 22 23 24 25 26 27 28 29 30

000
FTUS41 KPBZ 241921 AAA
TAFPIT
TAF AMD
KPIT 241921Z 2419/2524 31011G18KT P6SM SCT050
     FM250300 31010KT P6SM BKN035
     FM251100 31004KT 6SM BR SCT040
     FM251400 31009KT P6SM BKN040
     FM251700 31010KT P6SM SCT045=

USA.gov is the U.S. government's official web portal to all federal, state and local government web resources and services.